Time;durP1;ratioP1;P1;durP2;ratioP2;P2;SDS_P1;SDS_P2;PMS_P1;PMS_P2;Temp;Humidity;BMP_temperature;BMP_pressure;BME280_temperature;BME280_humidity;BME280_pressure;Samples;Min_cycle;Max_cycle;Signal;HPM_P1;HPM_P2
2022/05/20 00:01:22;;;;;;;4.43;1.80;;;25.80;40.70;;;;;;7688196;23;20055;-68
2022/05/20 00:04:23;;;;;;;8.73;2.30;;;25.70;40.70;;;;;;7662948;23;20055;-68
2022/05/20 00:07:24;;;;;;;12.38;2.40;;;25.70;40.70;;;;;;7687770;23;20096;-68
2022/05/20 00:10:28;;;;;;;8.38;2.00;;;25.60;40.70;;;;;;7662795;23;20020;-69
2022/05/20 00:13:29;;;;;;;14.48;2.38;;;25.60;40.80;;;;;;7713541;23;20092;-69
2022/05/20 00:16:30;;;;;;;8.82;2.00;;;25.50;40.80;;;;;;7662831;23;20070;-67
2022/05/20 00:19:32;;;;;;;8.00;1.98;;;25.50;40.90;;;;;;7687273;23;20020;-67
2022/05/20 00:22:33;;;;;;;9.10;2.25;;;25.50;41.00;;;;;;7687288;23;20078;-68
2022/05/20 00:25:46;;;;;;;6.40;2.10;;;25.40;41.00;;;;;;7662931;23;20012;-68
2022/05/20 00:28:48;;;;;;;9.38;1.85;;;25.40;41.00;;;;;;7712200;23;20017;-68
2022/05/20 00:31:50;;;;;;;12.25;2.22;;;25.40;41.00;;;;;;7685408;23;20024;-68
2022/05/20 00:34:50;;;;;;;13.43;2.30;;;25.40;41.10;;;;;;7660791;23;20020;-68
2022/05/20 00:37:51;;;;;;;6.25;2.17;;;25.30;41.10;;;;;;7689505;23;20017;-68
2022/05/20 00:40:54;;;;;;;7.22;2.03;;;25.30;41.20;;;;;;7690323;23;20032;-68
2022/05/20 00:43:58;;;;;;;9.60;1.73;;;25.30;41.30;;;;;;7690644;23;20035;-68
2022/05/20 00:46:59;;;;;;;5.50;2.03;;;25.20;41.30;;;;;;7716601;23;20027;-68
2022/05/20 00:50:06;;;;;;;6.22;1.80;;;25.20;41.40;;;;;;7690058;23;20012;-69
2022/05/20 00:53:07;;;;;;;12.60;2.17;;;25.10;41.50;;;;;;7715596;23;20017;-68
2022/05/20 00:56:13;;;;;;;8.68;1.90;;;25.10;41.60;;;;;;7716520;23;20017;-68
2022/05/20 00:59:19;;;;;;;11.52;2.05;;;25.10;41.70;;;;;;7690329;23;20099;-69
2022/05/20 01:02:22;;;;;;;6.30;2.08;;;25.00;41.80;;;;;;7689949;23;20028;-68
2022/05/20 01:05:31;;;;;;;10.02;2.28;;;25.10;41.90;;;;;;7715850;23;20107;-67
2022/05/20 01:08:33;;;;;;;14.85;2.25;;;25.00;41.90;;;;;;7714594;23;20333;-68
2022/05/20 01:11:37;;;;;;;13.35;2.03;;;25.00;42.00;;;;;;7715967;23;20016;-69
2022/05/20 01:14:38;;;;;;;10.07;2.72;;;24.90;42.10;;;;;;7689821;23;20297;-69
2022/05/20 01:17:39;;;;;;;7.13;1.90;;;24.90;42.30;;;;;;7690136;23;20012;-69
2022/05/20 01:20:46;;;;;;;6.38;1.73;;;24.80;42.40;;;;;;7689311;23;20375;-68
2022/05/20 01:23:47;;;;;;;6.63;1.98;;;24.80;42.60;;;;;;7689124;23;20027;-68
2022/05/20 01:26:48;;;;;;;14.38;2.03;;;24.70;42.60;;;;;;7715737;23;20363;-67
2022/05/20 01:29:49;;;;;;;10.07;2.00;;;24.70;42.80;;;;;;7689460;23;20087;-68
2022/05/20 01:32:50;;;;;;;9.93;1.83;;;24.70;42.90;;;;;;7715848;23;20024;-67
2022/05/20 01:35:51;;;;;;;10.10;2.03;;;24.70;43.00;;;;;;7689909;23;20324;-67
2022/05/20 01:38:53;;;;;;;8.15;2.10;;;24.70;43.00;;;;;;7716103;23;20039;-67
2022/05/20 01:42:28;;;;;;;10.18;2.00;;;24.60;43.10;;;;;;7715276;23;20032;-67
2022/05/20 01:45:41;;;;;;;8.82;2.28;;;24.60;43.20;;;;;;7715404;23;20020;-67
2022/05/20 01:48:55;;;;;;;10.88;2.42;;;24.60;43.30;;;;;;7714344;23;20084;-67
2022/05/20 01:52:18;;;;;;;6.25;2.42;;;24.50;43.40;;;;;;7688568;23;20028;-68
2022/05/20 01:55:32;;;;;;;4.10;2.10;;;24.50;43.70;;;;;;7713276;23;20198;-68
2022/05/20 01:58:49;;;;;;;10.05;2.20;;;24.40;43.70;;;;;;7688037;23;20087;-67
2022/05/20 02:02:08;;;;;;;6.90;2.15;;;24.40;43.90;;;;;;7711147;23;20724;-68
2022/05/20 02:05:14;;;;;;;;;;;24.30;43.90;;;;;;7686477;23;20020;-67
2022/05/20 02:08:29;;;;;;;8.18;1.98;;;24.30;44.00;;;;;;7660602;23;20066;-68
2022/05/20 02:11:37;;;;;;;4.55;2.25;;;24.30;44.00;;;;;;7685489;23;20183;-67
2022/05/20 02:14:49;;;;;;;8.05;2.15;;;24.30;44.20;;;;;;7711809;23;20415;-67
2022/05/20 02:17:55;;;;;;;6.85;1.95;;;24.20;44.30;;;;;;7685818;23;20410;-67
2022/05/20 02:21:03;;;;;;;3.15;1.77;;;24.20;44.40;;;;;;7712487;23;20091;-68
2022/05/20 02:24:08;;;;;;;4.80;1.90;;;24.20;44.40;;;;;;7685202;23;20008;-69
2022/05/20 02:27:16;;;;;;;14.52;2.65;;;24.20;44.30;;;;;;7686110;23;20009;-69
2022/05/20 02:30:21;;;;;;;5.82;2.08;;;24.20;44.40;;;;;;7686306;23;20367;-68
2022/05/20 02:33:25;;;;;;;8.27;2.20;;;24.20;44.60;;;;;;7660105;23;20039;-69
2022/05/20 02:36:32;;;;;;;8.13;2.13;;;24.20;44.60;;;;;;7685929;23;20037;-68
2022/05/20 02:39:33;;;;;;;11.07;2.40;;;24.20;44.70;;;;;;7685601;23;20066;-67
2022/05/20 02:42:34;;;;;;;9.25;2.35;;;24.20;44.70;;;;;;7685931;23;20016;-69
2022/05/20 02:45:36;;;;;;;7.43;2.42;;;24.20;45.00;;;;;;7661383;23;20021;-69
2022/05/20 02:48:38;;;;;;;6.47;3.10;;;24.20;45.20;;;;;;7685890;23;20361;-68
2022/05/20 02:51:38;;;;;;;6.78;2.83;;;24.20;45.50;;;;;;7711763;23;20020;-69
2022/05/20 02:54:39;;;;;;;12.65;3.00;;;24.10;45.70;;;;;;7660510;23;20051;-69
2022/05/20 02:57:41;;;;;;;5.85;3.67;;;24.10;45.80;;;;;;7686034;23;20408;-70
2022/05/20 03:04:10;;;;;;;6.43;2.90;;;24.10;46.10;;;;;;7711976;23;20079;-67
2022/05/20 03:07:13;;;;;;;6.50;2.88;;;24.10;46.30;;;;;;7686919;23;20103;-69
2022/05/20 03:10:14;;;;;;;7.10;2.60;;;24.10;46.40;;;;;;7686253;23;20017;-67
2022/05/20 03:13:16;;;;;;;11.77;2.40;;;24.10;46.60;;;;;;7686954;23;20039;-68
2022/05/20 03:16:17;;;;;;;7.55;2.90;;;24.00;46.60;;;;;;7713316;23;20032;-68
2022/05/20 03:19:19;;;;;;;10.00;3.03;;;24.00;47.00;;;;;;7686680;23;20424;-68
2022/05/20 03:22:20;;;;;;;7.50;2.80;;;23.90;46.70;;;;;;7713222;23;20008;-67
2022/05/20 03:25:21;;;;;;;7.25;2.83;;;23.90;46.80;;;;;;7687043;23;20439;-68
2022/05/20 03:28:22;;;;;;;14.57;2.60;;;23.90;46.80;;;;;;7686836;23;20012;-68
2022/05/20 03:31:23;;;;;;;6.70;2.42;;;23.80;46.60;;;;;;7686893;23;20035;-68
2022/05/20 03:34:24;;;;;;;5.38;2.10;;;23.80;46.70;;;;;;7686409;23;20416;-68
2022/05/20 03:37:25;;;;;;;10.57;2.35;;;23.70;46.80;;;;;;7661999;23;20016;-68
2022/05/20 03:40:26;;;;;;;7.22;2.75;;;23.70;46.80;;;;;;7713070;23;20009;-68
2022/05/20 03:43:27;;;;;;;9.43;2.78;;;23.70;47.00;;;;;;7713155;23;20016;-68
2022/05/20 03:46:28;;;;;;;7.50;2.67;;;23.70;47.20;;;;;;7712686;23;20023;-68
2022/05/20 03:49:29;;;;;;;9.60;2.58;;;23.70;47.40;;;;;;7712781;23;20033;-69
2022/05/20 03:52:30;;;;;;;6.50;2.75;;;23.60;47.60;;;;;;7711846;23;20462;-69
2022/05/20 03:55:32;;;;;;;13.23;2.67;;;23.70;47.70;;;;;;7711721;23;20028;-68
2022/05/20 03:58:33;;;;;;;8.23;2.42;;;23.60;47.70;;;;;;7712687;23;20044;-68
2022/05/20 04:04:55;;;;;;;8.70;2.78;;;23.60;47.80;;;;;;7711992;23;20092;-68
2022/05/20 04:07:56;;;;;;;7.85;3.33;;;23.60;47.90;;;;;;7712238;23;20066;-70
2022/05/20 04:10:56;;;;;;;7.63;2.58;;;23.60;48.00;;;;;;7686294;23;20024;-69
2022/05/20 04:13:57;;;;;;;9.27;2.72;;;23.60;48.70;;;;;;7686105;23;20098;-68
2022/05/20 04:16:58;;;;;;;13.52;2.83;;;23.60;48.70;;;;;;7686515;23;20131;-68
2022/05/20 04:19:59;;;;;;;5.28;2.38;;;23.60;48.10;;;;;;7673659;23;20025;-68
2022/05/20 04:23:00;;;;;;;11.25;3.78;;;23.60;48.10;;;;;;7649261;23;20017;-68
2022/05/20 04:26:01;;;;;;;6.15;2.72;;;23.50;48.00;;;;;;7648667;23;20017;-68
2022/05/20 04:29:02;;;;;;;8.35;2.65;;;23.50;48.10;;;;;;7675326;23;20017;-68
2022/05/20 04:32:04;;;;;;;7.45;2.50;;;23.60;48.20;;;;;;7673813;23;20025;-68
2022/05/20 04:35:05;;;;;;;6.75;3.03;;;23.50;48.20;;;;;;7671901;23;20013;-68
2022/05/20 04:38:06;;;;;;;6.18;2.45;;;23.50;48.20;;;;;;7673870;23;20044;-68
2022/05/20 04:47:46;;;;;;;7.53;2.75;;;23.50;48.40;;;;;;7671435;23;20021;-68
2022/05/20 04:50:47;;;;;;;4.75;2.63;;;23.50;48.30;;;;;;7673721;23;20017;-68
2022/05/20 04:57:17;;;;;;;4.78;2.40;;;23.50;48.30;;;;;;7673568;23;20017;-68
2022/05/20 05:00:29;;;;;;;6.80;2.90;;;23.50;48.30;;;;;;7671892;23;20404;-68
2022/05/20 05:03:32;;;;;;;5.72;2.88;;;23.60;48.20;;;;;;7673525;23;20083;-69
2022/05/20 05:06:33;;;;;;;6.30;2.80;;;23.60;48.10;;;;;;7671862;23;20096;-68
2022/05/20 05:09:34;;;;;;;9.77;2.55;;;23.60;48.80;;;;;;7673357;23;20027;-68
2022/05/20 05:12:35;;;;;;;7.30;2.95;;;23.60;48.20;;;;;;7645299;23;20416;-69
2022/05/20 05:15:37;;;;;;;8.57;2.80;;;23.60;48.10;;;;;;7672259;23;20040;-67
2022/05/20 05:18:37;;;;;;;6.78;2.83;;;23.50;48.10;;;;;;7671987;23;20152;-69
2022/05/20 05:21:39;;;;;;;8.60;2.75;;;23.50;48.20;;;;;;7646599;23;20377;-68
2022/05/20 05:24:40;;;;;;;8.30;2.83;;;23.50;48.10;;;;;;7669726;23;20031;-68
2022/05/20 05:27:41;;;;;;;12.88;2.50;;;23.50;48.00;;;;;;7674192;23;20009;-67
2022/05/20 05:30:48;;;;;;;16.67;3.10;;;23.40;48.10;;;;;;7675476;23;20452;-69
2022/05/20 05:33:50;;;;;;;6.50;2.45;;;23.40;48.20;;;;;;7674387;23;20072;-68
2022/05/20 05:36:51;;;;;;;5.63;2.50;;;23.40;48.10;;;;;;7673227;23;20024;-68
2022/05/20 05:39:52;;;;;;;6.05;2.92;;;23.30;48.10;;;;;;7675138;23;20017;-69
2022/05/20 05:42:55;;;;;;;7.22;3.10;;;23.30;48.20;;;;;;7675517;23;20447;-68
2022/05/20 05:45:55;;;;;;;8.07;2.67;;;23.30;48.30;;;;;;7648842;23;20017;-68
2022/05/20 05:48:59;;;;;;;11.60;2.90;;;23.30;48.20;;;;;;7673864;23;20024;-69
2022/05/20 05:52:00;;;;;;;4.32;2.60;;;23.30;48.30;;;;;;7673168;23;20020;-68
2022/05/20 05:55:01;;;;;;;6.28;2.63;;;23.30;48.30;;;;;;7675191;23;20028;-68
2022/05/20 05:58:02;;;;;;;9.32;2.63;;;23.30;48.30;;;;;;7673066;23;20024;-69
2022/05/20 06:01:04;;;;;;;9.73;2.53;;;23.30;48.30;;;;;;7673633;23;20013;-69
2022/05/20 06:04:05;;;;;;;8.50;2.72;;;23.30;48.30;;;;;;7673765;23;20024;-68
2022/05/20 06:07:06;;;;;;;12.73;2.65;;;23.40;48.30;;;;;;7672654;23;20013;-68
2022/05/20 06:10:08;;;;;;;10.05;2.55;;;23.40;48.30;;;;;;7674927;23;20025;-69
2022/05/20 06:13:10;;;;;;;8.43;2.47;;;23.40;48.10;;;;;;7650031;23;20009;-68
2022/05/20 06:16:16;;;;;;;8.15;2.05;;;23.50;48.10;;;;;;7625452;23;20017;-69
2022/05/20 06:19:17;;;;;;;10.95;2.53;;;23.50;47.90;;;;;;7628328;23;20035;-69
2022/05/20 06:22:17;;;;;;;7.50;2.63;;;23.60;47.80;;;;;;7712655;23;20024;-68
2022/05/20 06:25:19;;;;;;;14.20;4.38;;;23.70;47.80;;;;;;7713389;23;20025;-68
2022/05/20 06:28:20;;;;;;;7.13;2.47;;;23.70;47.60;;;;;;7712965;23;20017;-68
2022/05/20 06:31:21;;;;;;;11.57;2.65;;;23.80;47.50;;;;;;7649208;23;20083;-68
2022/05/20 06:34:22;;;;;;;6.85;2.83;;;23.90;47.30;;;;;;7684957;23;20036;-67
2022/05/20 06:41:04;;;;;;;4.53;2.58;;;24.20;47.00;;;;;;7522707;23;20043;-69
2022/05/20 06:44:05;;;;;;;6.47;3.03;;;24.30;46.80;;;;;;7522709;23;20025;-69
2022/05/20 06:47:07;;;;;;;21.48;3.08;;;24.40;46.70;;;;;;7526129;23;20101;-69
2022/05/20 06:50:11;;;;;;;9.02;2.45;;;24.50;46.70;;;;;;7525232;23;20031;-69
2022/05/20 06:53:13;;;;;;;9.50;2.83;;;24.60;46.50;;;;;;7525664;23;20085;-69
2022/05/20 06:56:15;;;;;;;5.35;2.60;;;24.70;46.20;;;;;;7525714;23;20015;-69
2022/05/20 06:59:16;;;;;;;10.73;3.25;;;24.80;46.10;;;;;;7526149;23;20102;-68
2022/05/20 07:02:17;;;;;;;9.48;2.85;;;24.90;45.80;;;;;;7501738;23;20011;-69
2022/05/20 07:05:18;;;;;;;12.73;2.60;;;25.00;45.70;;;;;;7525631;23;20019;-69
2022/05/20 07:08:19;;;;;;;14.23;2.67;;;25.10;45.60;;;;;;7524768;23;20042;-69
2022/05/20 07:11:22;;;;;;;9.48;2.92;;;25.10;45.40;;;;;;7591341;23;20074;-69
2022/05/20 07:14:23;;;;;;;9.63;2.03;;;25.10;45.30;;;;;;7673187;23;20092;-69
2022/05/20 07:17:24;;;;;;;21.60;2.65;;;25.30;45.10;;;;;;7676086;23;20024;-68
2022/05/20 07:20:25;;;;;;;13.90;2.78;;;25.30;44.80;;;;;;7634937;23;20446;-69
2022/05/20 07:23:28;;;;;;;12.68;2.90;;;25.30;44.80;;;;;;7710958;23;20009;-69
2022/05/20 07:26:29;;;;;;;9.00;2.50;;;25.50;44.80;;;;;;7684664;23;20016;-69
2022/05/20 07:29:30;;;;;;;12.88;2.60;;;25.60;44.50;;;;;;7684182;23;20013;-69
2022/05/20 07:32:32;;;;;;;15.25;2.35;;;25.80;44.20;;;;;;7658927;23;20071;-69
2022/05/20 07:35:33;;;;;;;11.68;2.30;;;25.90;43.80;;;;;;7710404;23;20012;-69
2022/05/20 07:38:34;;;;;;;9.85;2.78;;;26.00;43.40;;;;;;7684004;23;20328;-68
2022/05/20 07:41:36;;;;;;;16.20;2.55;;;26.20;43.10;;;;;;7696743;23;20027;-69
2022/05/20 07:44:37;;;;;;;6.90;2.33;;;26.30;42.90;;;;;;7711305;23;20290;-70
2022/05/20 07:47:37;;;;;;;13.93;2.33;;;26.50;42.70;;;;;;7711483;23;20031;-69
2022/05/20 07:50:43;;;;;;;6.40;2.08;;;26.60;42.50;;;;;;7685001;23;20021;-69
2022/05/20 07:53:54;;;;;;;6.35;2.60;;;26.70;42.30;;;;;;7711604;23;20080;-69
2022/05/20 07:57:01;;;;;;;7.45;2.05;;;26.90;42.10;;;;;;7673286;23;20435;-69
2022/05/20 08:00:04;;;;;;;10.88;2.22;;;27.00;41.80;;;;;;7673451;23;20370;-69
2022/05/20 08:04:52;;;;;;;13.25;2.72;;;27.10;41.60;;;;;;7673557;23;20286;-69
2022/05/20 08:06:34;;;;;;;17.10;2.92;;;27.30;41.40;;;;;;7677147;23;20009;-69
2022/05/20 08:09:35;;;;;;;7.05;2.70;;;27.50;41.20;;;;;;7648073;23;20010;-69
2022/05/20 08:12:36;;;;;;;16.77;2.50;;;27.60;41.10;;;;;;7674245;23;20027;-69
2022/05/20 08:15:37;;;;;;;4.53;2.90;;;27.80;40.90;;;;;;7674561;23;20147;-69
2022/05/20 08:18:38;;;;;;;6.03;2.30;;;27.90;40.80;;;;;;7673497;23;20017;-69
2022/05/20 08:21:38;;;;;;;10.95;2.38;;;28.00;40.40;;;;;;7672737;23;20316;-69
2022/05/20 08:24:40;;;;;;;9.10;1.90;;;28.20;40.20;;;;;;7671516;23;20093;-68
2022/05/20 08:27:40;;;;;;;7.03;2.55;;;28.30;39.60;;;;;;7673502;23;20488;-69
2022/05/20 08:30:41;;;;;;;11.25;2.42;;;28.50;39.30;;;;;;7672489;23;20021;-69
2022/05/20 08:33:42;;;;;;;5.22;2.20;;;28.50;39.10;;;;;;7673175;23;20025;-70
2022/05/20 08:36:43;;;;;;;12.60;2.22;;;28.70;39.00;;;;;;7672249;23;20020;-68
2022/05/20 08:39:45;;;;;;;10.80;2.75;;;28.80;38.70;;;;;;7673708;23;20383;-69
2022/05/20 08:42:47;;;;;;;6.05;2.10;;;29.00;38.50;;;;;;7648150;23;20081;-69
2022/05/20 08:45:48;;;;;;;4.93;2.10;;;29.10;38.40;;;;;;7647924;23;20044;-69
2022/05/20 08:48:54;;;;;;;5.35;1.95;;;29.30;38.20;;;;;;7672017;23;20088;-69
2022/05/20 08:51:55;;;;;;;9.73;2.47;;;29.40;37.80;;;;;;7672521;23;20051;-69
2022/05/20 08:54:56;;;;;;;5.97;2.63;;;29.60;37.30;;;;;;7673917;23;20321;-70
2022/05/20 08:58:02;;;;;;;5.82;2.35;;;29.80;36.30;;;;;;7673757;23;20020;-72
2022/05/20 09:01:03;;;;;;;6.63;1.85;;;30.10;35.60;;;;;;7675947;23;20088;-69
2022/05/20 09:04:10;;;;;;;10.35;2.15;;;30.40;34.80;;;;;;7675508;23;20012;-69
2022/05/20 09:07:14;;;;;;;8.52;2.22;;;30.60;34.20;;;;;;7649402;23;20009;-69
2022/05/20 09:10:47;;;;;;;4.07;1.65;;;30.90;33.60;;;;;;7674987;23;20113;-70
2022/05/20 09:17:14;;;;;;;5.10;1.80;;;31.50;32.50;;;;;;7673818;23;20028;-69
2022/05/20 09:20:18;;;;;;;4.70;1.38;;;31.70;31.50;;;;;;7657710;23;20111;-68
2022/05/20 09:23:22;;;;;;;9.75;2.10;;;32.00;31.00;;;;;;7634156;23;20014;-70
2022/05/20 09:26:37;;;;;;;6.15;1.50;;;32.20;30.70;;;;;;7634121;23;20022;-69
2022/05/20 09:29:44;;;;;;;3.97;1.83;;;32.40;29.30;;;;;;7646620;23;20044;-68
2022/05/20 09:33:01;;;;;;;7.82;1.42;;;32.60;27.90;;;;;;7648332;23;20039;-68
2022/05/20 09:36:03;;;;;;;1.45;1.15;;;32.90;27.30;;;;;;7672107;23;20013;-69
2022/05/20 09:39:10;;;;;;;4.50;1.48;;;33.10;26.10;;;;;;7672243;23;20017;-69
2022/05/20 09:42:21;;;;;;;6.10;1.40;;;33.30;26.00;;;;;;7618998;23;20503;-69
2022/05/20 09:45:22;;;;;;;4.80;1.50;;;33.50;25.70;;;;;;7646564;23;20432;-69
2022/05/20 09:48:38;;;;;;;6.53;1.40;;;33.70;25.20;;;;;;7622961;23;20108;-69
2022/05/20 09:51:48;;;;;;;4.72;1.73;;;33.90;24.80;;;;;;7647364;23;20044;-69
2022/05/20 09:55:14;;;;;;;4.88;1.88;;;34.00;24.70;;;;;;7648341;23;20020;-70
2022/05/20 09:58:17;;;;;;;5.55;1.90;;;34.20;24.20;;;;;;7673095;23;20104;-69
2022/05/20 10:01:20;;;;;;;4.35;1.30;;;34.30;23.60;;;;;;7647680;23;20313;-69
2022/05/20 10:04:41;;;;;;;2.25;1.40;;;34.30;23.60;;;;;;7674188;23;20016;-70
2022/05/20 10:08:14;;;;;;;3.05;1.60;;;34.50;23.00;;;;;;7644983;23;20080;-69
2022/05/20 10:11:28;;;;;;;7.63;1.67;;;34.50;23.10;;;;;;7429651;23;20036;-69
2022/05/20 10:15:01;;;;;;;4.30;1.50;;;34.70;23.20;;;;;;7454272;23;20027;-70
2022/05/20 10:18:20;;;;;;;2.42;1.30;;;34.70;23.10;;;;;;7476039;23;20078;-69
2022/05/20 10:21:54;;;;;;;4.18;1.40;;;34.90;22.70;;;;;;7452312;23;20027;-69
2022/05/20 10:25:08;;;;;;;4.30;1.48;;;34.90;22.50;;;;;;7463849;23;20394;-69
2022/05/20 10:35:49;;;;;;;5.60;1.37;;;35.30;21.70;;;;;;7486590;23;20015;-69
2022/05/20 10:39:22;;;;;;;7.90;1.42;;;35.40;21.30;;;;;;7486733;23;20019;-68
2022/05/20 10:43:00;;;;;;;7.00;1.40;;;35.50;21.10;;;;;;7486823;23;20094;-69
2022/05/20 10:49:26;;;;;;;2.85;1.63;;;35.90;20.90;;;;;;7661404;23;20079;-69
2022/05/20 10:52:54;;;;;;;4.20;1.20;;;36.10;20.80;;;;;;7622558;23;20025;-70
2022/05/20 10:56:03;;;;;;;4.38;1.40;;;36.10;20.50;;;;;;7645730;23;20401;-68
2022/05/20 10:59:07;;;;;;;3.08;1.42;;;36.50;20.30;;;;;;7645262;23;20020;-70
2022/05/20 11:02:44;;;;;;;4.80;1.30;;;37.20;19.70;;;;;;7646444;23;20405;-69
2022/05/20 11:06:00;;;;;;;4.20;1.52;;;37.90;18.60;;;;;;7608377;23;20023;-70
2022/05/20 11:09:23;;;;;;;5.95;1.30;;;38.30;18.30;;;;;;7607323;23;20405;-70
2022/05/20 11:12:51;;;;;;;7.07;1.23;;;38.60;18.20;;;;;;7625626;23;20101;-69
2022/05/20 11:16:07;;;;;;;2.83;1.20;;;39.20;18.00;;;;;;7656804;23;20014;-69
2022/05/20 11:19:25;;;;;;;4.70;1.10;;;39.60;17.70;;;;;;7661489;23;20025;-69
2022/05/20 11:22:38;;;;;;;6.78;1.10;;;39.80;17.50;;;;;;7693904;23;20033;-69
2022/05/20 11:26:17;;;;;;;2.45;1.30;;;40.00;17.50;;;;;;7669435;23;20101;-71
2022/05/20 11:29:39;;;;;;;4.25;1.40;;;40.30;17.80;;;;;;7644187;23;20096;-71
2022/05/20 11:33:01;;;;;;;4.28;1.50;;;40.60;17.60;;;;;;7670585;23;20385;-70
2022/05/20 11:36:40;;;;;;;6.13;1.73;;;40.50;17.20;;;;;;7668838;23;20016;-71
2022/05/20 11:39:50;;;;;;;4.85;1.45;;;40.50;17.30;;;;;;7639598;23;20367;-70
2022/05/20 11:43:30;;;;;;;2.47;1.33;;;40.60;17.30;;;;;;7669649;23;20028;-70
2022/05/20 11:46:45;;;;;;;2.38;1.30;;;40.80;17.00;;;;;;7641404;23;20013;-71
2022/05/20 11:50:17;;;;;;;15.82;1.48;;;40.90;17.20;;;;;;7669118;23;20048;-70
2022/05/20 11:53:37;;;;;;;5.10;1.35;;;40.90;16.90;;;;;;7629642;23;20017;-70
2022/05/20 11:56:50;;;;;;;5.75;1.30;;;41.00;16.80;;;;;;7630917;23;20013;-71
2022/05/20 12:00:03;;;;;;;5.00;1.30;;;41.00;16.60;;;;;;7670114;23;20364;-71
2022/05/20 12:03:13;;;;;;;4.03;1.48;;;40.90;16.70;;;;;;7671228;23;20009;-72
2022/05/20 12:06:15;;;;;;;4.40;1.50;;;41.00;16.70;;;;;;7671318;23;20358;-72
2022/05/20 12:09:39;;;;;;;3.97;1.48;;;41.10;16.90;;;;;;7670345;23;20037;-72
2022/05/20 12:13:10;;;;;;;7.18;2.22;;;41.30;16.80;;;;;;7669697;23;20017;-71
2022/05/20 12:16:16;;;;;;;3.75;1.70;;;41.30;16.20;;;;;;7668958;23;20092;-71
2022/05/20 12:26:47;;;;;;;1.98;1.02;;;41.00;16.40;;;;;;7633757;23;20416;-72
2022/05/20 12:30:06;;;;;;;7.20;1.55;;;41.20;16.20;;;;;;7635899;23;20013;-71
2022/05/20 12:33:47;;;;;;;3.83;1.48;;;41.30;16.20;;;;;;7612737;23;20014;-70
2022/05/20 12:36:47;;;;;;;6.75;1.75;;;41.20;16.20;;;;;;7616925;23;20089;-70
2022/05/20 12:39:53;;;;;;;15.98;2.00;;;41.20;16.20;;;;;;7673234;23;20411;-70
2022/05/20 12:43:02;;;;;;;6.40;1.60;;;41.10;16.50;;;;;;7612593;23;20040;-71
2022/05/20 12:46:04;;;;;;;10.25;1.85;;;41.00;16.70;;;;;;7660288;23;20029;-71
2022/05/20 12:49:05;;;;;;;2.92;1.52;;;40.90;16.50;;;;;;7611017;23;20060;-71
2022/05/20 12:52:11;;;;;;;5.75;1.15;;;40.80;16.60;;;;;;7609972;23;20100;-71
2022/05/20 12:55:13;;;;;;;;;;;41.20;16.60;;;;;;7660423;23;20025;-71
2022/05/20 12:58:15;;;;;;;3.58;1.38;;;41.90;16.10;;;;;;7659685;23;19913;-71
2022/05/20 13:01:18;;;;;;;3.15;1.40;;;42.50;15.40;;;;;;7660098;23;20370;-71
2022/05/20 13:04:21;;;;;;;4.65;1.40;;;43.00;15.20;;;;;;7659773;23;20022;-71
2022/05/20 13:07:23;;;;;;;2.67;1.70;;;43.50;15.10;;;;;;7674998;23;20017;-72
2022/05/20 13:10:27;;;;;;;4.30;1.30;;;44.00;15.00;;;;;;7616280;23;20022;-71
2022/05/20 13:13:30;;;;;;;2.80;1.30;;;44.70;14.70;;;;;;7636016;23;20022;-71
2022/05/20 13:16:32;;;;;;;4.53;1.38;;;45.20;14.50;;;;;;7612401;23;20448;-71
2022/05/20 13:19:45;;;;;;;5.03;1.38;;;45.70;14.00;;;;;;7621242;23;20024;-72
2022/05/20 13:22:50;;;;;;;6.03;1.17;;;45.60;13.60;;;;;;7667819;23;20303;-71
2022/05/20 13:25:51;;;;;;;3.53;1.10;;;45.50;13.80;;;;;;7647528;23;20484;-72
2022/05/20 13:29:11;;;;;;;3.17;1.42;;;45.80;13.70;;;;;;7658765;23;20009;-72
2022/05/20 13:32:32;;;;;;;3.25;1.40;;;46.30;13.60;;;;;;7673370;23;20480;-73
2022/05/20 13:35:45;;;;;;;4.03;1.50;;;46.30;13.40;;;;;;7671657;23;20028;-72
2022/05/20 13:38:55;;;;;;;3.60;1.30;;;46.30;13.50;;;;;;7645992;23;20096;-72
2022/05/20 13:41:57;;;;;;;2.80;1.30;;;46.60;13.40;;;;;;7650678;23;20013;-72
2022/05/20 13:45:09;;;;;;;5.13;1.33;;;46.80;13.30;;;;;;7673709;23;20443;-72
2022/05/20 13:52:00;;;;;;;3.38;1.50;;;46.90;13.20;;;;;;7646132;23;20029;-73
2022/05/20 13:55:07;;;;;;;3.88;1.40;;;47.00;12.90;;;;;;7623457;23;20017;-72
2022/05/20 13:58:09;;;;;;;4.78;1.50;;;47.30;13.10;;;;;;7647934;23;20017;-73
2022/05/20 14:01:14;;;;;;;4.70;1.60;;;47.60;12.80;;;;;;7647917;23;20107;-72
2022/05/20 14:04:14;;;;;;;3.53;1.23;;;47.90;12.70;;;;;;7673411;23;20021;-72
2022/05/20 14:07:35;;;;;;;4.18;1.60;;;48.00;12.60;;;;;;7673676;23;20385;-73
2022/05/20 14:10:39;;;;;;;4.40;1.33;;;48.10;12.70;;;;;;7698733;23;20027;-73
2022/05/20 14:13:41;;;;;;;3.28;1.80;;;48.20;12.50;;;;;;7610648;23;20321;-71
2022/05/20 14:16:49;;;;;;;6.32;1.40;;;47.40;12.70;;;;;;7658924;23;20096;-71
2022/05/20 14:19:50;;;;;;;4.90;1.95;;;46.00;13.40;;;;;;7646962;23;20017;-71
2022/05/20 14:22:51;;;;;;;1.83;1.00;;;44.40;14.10;;;;;;7647213;23;20017;-72
2022/05/20 14:26:01;;;;;;;3.50;1.30;;;43.10;14.90;;;;;;7672593;23;20009;-72
2022/05/20 14:29:15;;;;;;;6.47;1.60;;;42.40;15.40;;;;;;7683395;23;20027;-71
2022/05/20 14:32:17;;;;;;;5.07;1.65;;;42.00;15.70;;;;;;7672343;23;20449;-71
2022/05/20 14:35:29;;;;;;;5.85;1.35;;;41.60;15.90;;;;;;7674552;23;20021;-72
2022/05/20 14:38:45;;;;;;;7.15;1.52;;;41.30;16.20;;;;;;7670896;23;20116;-72
2022/05/20 14:42:02;;;;;;;2.23;1.20;;;41.00;16.40;;;;;;7672564;23;20028;-72
2022/05/20 14:45:14;;;;;;;4.43;1.80;;;40.90;16.60;;;;;;7671183;23;20017;-72
2022/05/20 14:48:23;;;;;;;2.65;1.40;;;40.70;16.60;;;;;;7671541;23;20500;-72
2022/05/20 14:51:27;;;;;;;3.00;1.30;;;40.50;16.90;;;;;;7657638;23;20025;-72
2022/05/20 14:54:40;;;;;;;5.68;0.98;;;40.50;17.00;;;;;;7644613;23;20016;-72
2022/05/20 14:57:59;;;;;;;6.70;1.40;;;40.50;17.10;;;;;;7670398;23;20135;-77
2022/05/20 15:01:12;;;;;;;3.67;1.50;;;40.40;17.20;;;;;;7668079;23;20458;-72
2022/05/20 15:04:13;;;;;;;4.97;1.67;;;40.30;17.20;;;;;;7670582;23;20017;-72
2022/05/20 15:07:14;;;;;;;8.23;1.52;;;39.90;17.70;;;;;;7669879;23;20044;-72
2022/05/20 15:10:20;;;;;;;6.97;1.92;;;39.50;18.40;;;;;;7669583;23;20033;-72
2022/05/20 15:13:22;;;;;;;3.65;1.80;;;39.10;19.20;;;;;;7660614;23;20051;-71
2022/05/20 15:16:24;;;;;;;6.22;1.95;;;38.80;19.60;;;;;;7668864;23;20028;-71
2022/05/20 15:19:26;;;;;;;13.98;1.83;;;38.60;20.00;;;;;;7637791;23;20072;-72
2022/05/20 15:22:27;;;;;;;9.75;2.03;;;38.10;20.30;;;;;;7631149;23;20010;-73
2022/05/20 15:25:28;;;;;;;3.45;2.03;;;37.70;20.70;;;;;;7631896;23;20440;-71
2022/05/20 15:28:47;;;;;;;15.10;2.45;;;37.30;21.20;;;;;;7606699;23;20084;-72
2022/05/20 15:35:08;;;;;;;5.00;1.70;;;36.70;22.00;;;;;;7643337;23;20024;-72
2022/05/20 15:38:10;;;;;;;8.65;2.05;;;36.60;22.20;;;;;;7644099;23;20044;-72
2022/05/20 15:41:19;;;;;;;2.70;1.80;;;36.60;22.20;;;;;;7644295;23;20360;-71
2022/05/20 15:44:20;;;;;;;9.35;1.90;;;36.60;22.10;;;;;;7667534;23;20025;-72
2022/05/20 15:47:23;;;;;;;10.70;2.30;;;36.50;22.20;;;;;;7644286;23;20028;-72
2022/05/20 15:50:26;;;;;;;2.83;1.65;;;36.40;22.30;;;;;;7665692;23;20435;-72
2022/05/20 15:53:27;;;;;;;6.43;2.05;;;36.30;22.40;;;;;;7669496;23;20083;-72
2022/05/20 15:56:28;;;;;;;16.77;1.80;;;36.20;22.60;;;;;;7669986;23;20079;-71
2022/05/20 15:59:33;;;;;;;6.03;1.65;;;36.10;22.80;;;;;;7669681;23;20091;-72
2022/05/20 16:02:36;;;;;;;10.10;1.95;;;36.30;22.80;;;;;;7619325;23;20021;-71
2022/05/20 16:05:40;;;;;;;5.05;1.83;;;36.40;22.90;;;;;;7668858;23;20024;-70
2022/05/20 16:08:41;;;;;;;5.97;2.10;;;36.40;23.00;;;;;;7643198;23;20101;-72
2022/05/20 16:11:45;;;;;;;5.70;2.00;;;36.10;23.20;;;;;;7645485;23;20024;-71
2022/05/20 16:14:46;;;;;;;4.30;2.05;;;35.90;23.40;;;;;;7670226;23;20124;-71
2022/05/20 16:17:48;;;;;;;7.70;1.85;;;35.70;23.50;;;;;;7645531;23;20013;-72
2022/05/20 16:20:50;;;;;;;7.43;2.10;;;35.60;23.50;;;;;;7645493;23;20385;-72
2022/05/20 16:23:59;;;;;;;12.07;2.10;;;35.50;23.40;;;;;;7656621;23;20005;-72
2022/05/20 16:27:01;;;;;;;11.82;2.33;;;35.50;23.30;;;;;;7644912;23;20075;-71
2022/05/20 16:30:04;;;;;;;6.50;2.00;;;35.70;23.00;;;;;;7644904;23;20033;-71
2022/05/20 16:33:06;;;;;;;6.28;2.00;;;35.90;22.90;;;;;;7620395;23;20035;-72
2022/05/20 16:36:07;;;;;;;8.15;2.00;;;35.80;22.80;;;;;;7645340;23;20017;-72
2022/05/20 16:39:08;;;;;;;5.05;1.85;;;35.80;22.90;;;;;;7670985;23;20021;-71
2022/05/20 16:42:12;;;;;;;16.33;2.13;;;35.80;22.90;;;;;;7631203;23;20027;-73
2022/05/20 16:45:13;;;;;;;4.93;2.08;;;35.70;23.00;;;;;;7671901;23;20071;-72
2022/05/20 16:48:29;;;;;;;7.07;2.05;;;35.50;23.20;;;;;;7646259;23;20424;-72
2022/05/20 16:51:32;;;;;;;6.95;2.20;;;35.30;23.50;;;;;;7659574;23;20128;-72
2022/05/20 16:54:38;;;;;;;10.40;1.85;;;35.20;23.80;;;;;;7669885;23;20424;-71
2022/05/20 17:04:20;;;;;;;10.35;2.78;;;34.80;24.20;;;;;;7634196;23;20028;-71